Time;durP1;ratioP1;P1;durP2;ratioP2;P2;SDS_P1;SDS_P2;PMS_P1;PMS_P2;Temp;Humidity;BMP_temperature;BMP_pressure;BME280_temperature;BME280_humidity;BME280_pressure;Samples;Min_cycle;Max_cycle;Signal;HPM_P1;HPM_P2
2023/08/02 00:00:57;;;;;;;3.67;2.50;;;15.60;99.90;;;;;;4997240;28;20205;-68
2023/08/02 00:03:24;;;;;;;2.80;2.60;;;15.50;99.90;;;;;;4997757;28;20293;-66
2023/08/02 00:05:56;;;;;;;4.97;2.97;;;15.40;99.90;;;;;;4999242;28;20217;-68
2023/08/02 00:08:23;;;;;;;3.23;2.73;;;15.50;99.90;;;;;;4999541;28;20197;-66
2023/08/02 00:10:50;;;;;;;4.30;2.73;;;15.50;99.90;;;;;;4980544;28;20319;-66
2023/08/02 00:13:16;;;;;;;4.33;2.90;;;15.50;99.90;;;;;;4996697;28;20193;-66
2023/08/02 00:15:44;;;;;;;5.23;3.33;;;15.50;99.90;;;;;;4996925;28;20956;-68
2023/08/02 00:18:11;;;;;;;4.47;3.30;;;15.40;99.90;;;;;;5002683;28;20213;-66
2023/08/02 00:20:38;;;;;;;3.77;3.03;;;15.50;99.90;;;;;;4986829;28;20200;-67
2023/08/02 00:23:07;;;;;;;7.07;3.23;;;15.50;99.90;;;;;;4997200;28;20235;-68
2023/08/02 00:25:34;;;;;;;4.47;3.40;;;15.60;99.90;;;;;;4995338;28;20220;-67
2023/08/02 00:28:00;;;;;;;3.33;2.43;;;15.50;99.90;;;;;;5003309;28;20192;-68
2023/08/02 00:30:30;;;;;;;3.80;3.10;;;15.40;99.90;;;;;;4983286;28;20267;-66
2023/08/02 00:32:57;;;;;;;5.23;2.97;;;15.50;99.90;;;;;;5002328;28;20197;-67
2023/08/02 00:35:24;;;;;;;6.07;2.90;;;15.50;99.90;;;;;;4990771;28;20220;-66
2023/08/02 00:37:51;;;;;;;2.80;2.53;;;15.50;99.90;;;;;;4993227;28;20204;-67
2023/08/02 00:40:19;;;;;;;3.43;3.13;;;15.60;99.90;;;;;;4989346;28;20608;-66
2023/08/02 00:42:46;;;;;;;5.43;3.20;;;15.50;99.90;;;;;;5002806;28;20217;-66
2023/08/02 00:45:13;;;;;;;4.07;3.17;;;15.50;99.90;;;;;;4973507;28;20407;-66
2023/08/02 00:47:40;;;;;;;4.60;3.13;;;15.50;99.90;;;;;;4995950;28;20197;-66
2023/08/02 00:50:07;;;;;;;4.63;3.10;;;15.60;99.90;;;;;;4989122;28;20189;-68
2023/08/02 00:52:35;;;;;;;3.43;2.90;;;15.60;99.90;;;;;;5000529;28;20181;-67
2023/08/02 00:55:01;;;;;;;5.23;3.20;;;15.50;99.90;;;;;;5005626;28;20315;-68
2023/08/02 00:57:30;;;;;;;4.30;3.00;;;15.50;99.90;;;;;;4982382;28;20204;-66
2023/08/02 00:59:57;;;;;;;3.30;3.00;;;15.40;99.90;;;;;;5002112;28;20276;-67
2023/08/02 01:02:24;;;;;;;3.70;3.20;;;15.60;99.90;;;;;;4986344;28;20631;-66
2023/08/02 01:04:51;;;;;;;4.67;2.50;;;15.50;99.90;;;;;;4995661;28;20759;-67
2023/08/02 01:07:25;;;;;;;3.27;3.00;;;15.50;99.90;;;;;;4994042;28;20205;-66
2023/08/02 01:09:59;;;;;;;3.60;2.57;;;15.60;99.90;;;;;;4988045;28;20204;-66
2023/08/02 01:12:26;;;;;;;3.37;3.10;;;15.50;99.90;;;;;;4984209;28;20217;-65
2023/08/02 01:14:58;;;;;;;4.47;3.03;;;15.50;99.90;;;;;;4987714;28;20224;-67
2023/08/02 01:17:26;;;;;;;3.23;2.90;;;15.40;99.90;;;;;;4964571;28;20201;-67
2023/08/02 01:19:53;;;;;;;3.40;3.03;;;15.50;99.90;;;;;;5001367;28;20208;-67
2023/08/02 01:22:21;;;;;;;3.00;2.80;;;15.40;99.90;;;;;;4974679;28;20217;-67
2023/08/02 01:24:48;;;;;;;4.97;3.13;;;15.50;99.90;;;;;;4993034;28;20227;-69
2023/08/02 01:27:18;;;;;;;5.50;3.70;;;15.50;99.90;;;;;;4998692;28;20200;-66
2023/08/02 01:29:48;;;;;;;4.70;3.30;;;15.50;99.90;;;;;;4979422;28;20955;-67
2023/08/02 01:32:17;;;;;;;4.13;3.77;;;15.50;99.90;;;;;;4982135;28;20296;-66
2023/08/02 01:34:45;;;;;;;5.27;3.47;;;15.40;99.90;;;;;;4976168;28;20470;-68
2023/08/02 01:37:12;;;;;;;3.90;3.57;;;15.40;99.90;;;;;;5001587;28;20221;-67
2023/08/02 01:39:40;;;;;;;3.67;3.43;;;15.40;99.90;;;;;;5002648;28;20956;-68
2023/08/02 01:42:07;;;;;;;5.23;4.13;;;15.40;99.90;;;;;;4993227;28;20208;-68
2023/08/02 01:44:34;;;;;;;7.47;4.17;;;15.30;99.90;;;;;;4979521;28;20880;-69
2023/08/02 01:47:00;;;;;;;4.53;3.40;;;15.40;99.90;;;;;;4975779;28;20209;-65
2023/08/02 01:49:27;;;;;;;4.77;3.57;;;15.40;99.90;;;;;;4990710;28;20230;-65
2023/08/02 01:51:54;;;;;;;5.77;3.23;;;15.30;99.90;;;;;;4998878;28;20202;-68
2023/08/02 01:54:21;;;;;;;5.50;3.23;;;15.40;99.90;;;;;;4988976;28;20228;-64
2023/08/02 01:56:49;;;;;;;5.37;3.30;;;15.30;99.90;;;;;;4987820;28;20197;-65
2023/08/02 01:59:16;;;;;;;6.77;3.50;;;15.30;99.90;;;;;;4980867;28;20263;-63
2023/08/02 02:01:43;;;;;;;6.33;3.30;;;15.30;99.90;;;;;;4975426;28;20203;-67
2023/08/02 02:04:10;;;;;;;3.97;3.27;;;15.40;99.90;;;;;;4982322;28;20229;-65
2023/08/02 02:06:37;;;;;;;3.10;2.80;;;15.30;99.90;;;;;;5001841;28;20184;-67
2023/08/02 02:09:04;;;;;;;3.87;2.83;;;15.30;99.90;;;;;;5001852;28;20738;-65
2023/08/02 02:11:30;;;;;;;5.37;2.90;;;15.30;99.90;;;;;;4988340;28;20700;-67
2023/08/02 02:13:59;;;;;;;3.67;3.37;;;15.30;99.90;;;;;;5012338;28;20213;-67
2023/08/02 02:16:25;;;;;;;4.13;2.80;;;15.20;99.90;;;;;;4979635;28;20201;-64
2023/08/02 02:18:52;;;;;;;3.90;3.33;;;15.20;99.90;;;;;;4986956;28;20208;-67
2023/08/02 02:21:19;;;;;;;2.80;2.60;;;15.20;99.90;;;;;;4979096;28;20208;-64
2023/08/02 02:23:46;;;;;;;2.90;2.70;;;15.20;99.90;;;;;;4993210;28;20220;-67
2023/08/02 02:26:13;;;;;;;3.20;2.50;;;15.20;99.90;;;;;;4976259;28;20201;-65
2023/08/02 02:28:39;;;;;;;3.07;2.77;;;15.20;99.90;;;;;;4985009;28;20259;-67
2023/08/02 02:31:08;;;;;;;2.50;2.30;;;15.20;99.90;;;;;;4991596;28;20259;-66
2023/08/02 02:33:34;;;;;;;3.13;2.43;;;15.30;99.90;;;;;;4975524;28;20196;-66
2023/08/02 02:36:03;;;;;;;3.30;2.90;;;15.40;99.90;;;;;;4988277;28;20213;-67
2023/08/02 02:38:31;;;;;;;3.83;2.70;;;15.20;99.90;;;;;;4989229;28;20214;-67
2023/08/02 02:40:58;;;;;;;5.47;2.67;;;15.30;99.90;;;;;;5002230;28;20205;-67
2023/08/02 02:43:25;;;;;;;5.20;2.77;;;15.20;99.90;;;;;;4983693;28;20650;-65
2023/08/02 02:45:52;;;;;;;3.73;2.40;;;15.20;99.90;;;;;;4985981;28;20314;-66
2023/08/02 02:48:21;;;;;;;2.40;1.90;;;15.20;99.90;;;;;;4996855;28;20200;-64
2023/08/02 02:50:47;;;;;;;2.60;2.10;;;15.20;99.90;;;;;;4988176;28;20208;-67
2023/08/02 02:53:16;;;;;;;2.57;2.23;;;15.20;99.90;;;;;;4979498;28;20200;-63
2023/08/02 02:55:43;;;;;;;3.27;2.30;;;15.20;99.90;;;;;;4998024;28;20214;-67
2023/08/02 02:58:10;;;;;;;2.40;2.20;;;15.30;99.90;;;;;;4982821;28;20738;-66
2023/08/02 03:00:36;;;;;;;2.20;2.10;;;15.20;99.90;;;;;;5004534;28;20188;-67
2023/08/02 03:03:04;;;;;;;2.20;2.00;;;15.30;99.90;;;;;;5003645;28;20263;-66
2023/08/02 03:05:32;;;;;;;2.10;1.90;;;15.20;99.90;;;;;;4980345;28;20783;-67
2023/08/02 03:07:59;;;;;;;3.90;1.93;;;15.30;99.90;;;;;;4996821;28;20216;-67
2023/08/02 03:10:25;;;;;;;3.13;2.03;;;15.30;99.90;;;;;;4994249;28;20259;-65
2023/08/02 03:12:52;;;;;;;3.00;1.93;;;15.30;99.90;;;;;;5002097;28;20200;-68
2023/08/02 03:15:19;;;;;;;3.00;1.97;;;15.30;99.90;;;;;;5001101;28;20880;-65
2023/08/02 03:17:46;;;;;;;2.40;1.67;;;15.30;99.90;;;;;;5001685;28;20204;-68
2023/08/02 03:20:13;;;;;;;2.50;2.30;;;15.30;99.90;;;;;;4992906;28;20214;-64
2023/08/02 03:22:41;;;;;;;2.20;2.00;;;15.30;99.90;;;;;;4980817;28;20228;-66
2023/08/02 03:25:08;;;;;;;3.57;2.40;;;15.30;99.90;;;;;;4985545;28;20225;-64
2023/08/02 03:27:36;;;;;;;3.43;2.20;;;15.30;99.90;;;;;;4995021;28;20200;-67
2023/08/02 03:30:03;;;;;;;2.20;2.00;;;15.30;99.90;;;;;;4993406;28;20208;-66
2023/08/02 03:32:30;;;;;;;2.37;1.97;;;15.30;99.90;;;;;;4981984;28;20204;-67
2023/08/02 03:34:57;;;;;;;1.63;1.53;;;15.30;99.90;;;;;;4993224;28;20232;-66
2023/08/02 03:37:24;;;;;;;2.83;1.60;;;15.30;99.90;;;;;;4977049;28;20232;-66
2023/08/02 03:39:52;;;;;;;1.93;1.53;;;15.30;99.90;;;;;;5002704;28;20251;-67
2023/08/02 03:42:19;;;;;;;1.80;1.70;;;15.30;99.90;;;;;;4983615;28;20898;-67
2023/08/02 03:44:46;;;;;;;2.87;1.80;;;15.30;99.90;;;;;;4987618;28;20249;-67
2023/08/02 03:47:13;;;;;;;1.77;1.67;;;15.30;99.90;;;;;;4997801;28;20603;-66
2023/08/02 03:49:41;;;;;;;2.40;1.80;;;15.30;99.90;;;;;;5003484;28;20197;-67
2023/08/02 03:52:08;;;;;;;2.27;1.90;;;15.30;99.90;;;;;;4983051;28;20267;-64
2023/08/02 03:54:35;;;;;;;1.80;1.70;;;15.40;99.90;;;;;;4997415;28;20778;-70
2023/08/02 03:57:03;;;;;;;2.47;2.27;;;15.30;99.90;;;;;;4993192;28;20194;-64
2023/08/02 03:59:30;;;;;;;2.97;1.90;;;15.30;99.90;;;;;;4999410;28;20932;-67
2023/08/02 04:01:57;;;;;;;3.13;1.80;;;15.30;99.90;;;;;;4999447;28;20200;-64
2023/08/02 04:04:23;;;;;;;3.67;2.00;;;15.30;99.90;;;;;;4998986;28;20224;-68
2023/08/02 04:06:50;;;;;;;2.23;1.97;;;15.30;99.90;;;;;;4994458;28;20254;-68
2023/08/02 04:09:17;;;;;;;2.97;2.40;;;15.40;99.90;;;;;;4977795;28;20670;-67
2023/08/02 04:11:44;;;;;;;2.37;1.70;;;15.40;99.90;;;;;;4996164;28;20201;-68
2023/08/02 04:14:12;;;;;;;3.03;1.80;;;15.40;99.90;;;;;;4995758;28;20270;-66
2023/08/02 04:16:39;;;;;;;2.00;1.90;;;15.40;99.90;;;;;;5000339;28;20668;-68
2023/08/02 04:19:05;;;;;;;1.63;1.47;;;15.40;99.90;;;;;;4995950;28;20204;-66
2023/08/02 04:21:32;;;;;;;3.27;1.63;;;15.40;99.90;;;;;;4990445;28;20839;-68
2023/08/02 04:24:00;;;;;;;1.70;1.60;;;15.40;99.90;;;;;;4985325;28;20298;-64
2023/08/02 04:26:27;;;;;;;2.60;1.70;;;15.40;99.90;;;;;;4990758;28;20214;-67
2023/08/02 04:28:54;;;;;;;1.63;1.50;;;15.40;99.90;;;;;;5002793;28;20192;-65
2023/08/02 04:31:22;;;;;;;1.63;1.53;;;15.40;99.90;;;;;;4993435;28;20199;-67
2023/08/02 04:33:49;;;;;;;3.37;1.90;;;15.40;99.90;;;;;;4997335;28;20820;-67
2023/08/02 04:36:16;;;;;;;2.57;1.80;;;15.40;99.90;;;;;;4994902;28;20439;-66
2023/08/02 04:38:43;;;;;;;1.60;1.50;;;15.40;99.90;;;;;;4990398;28;20209;-67
2023/08/02 04:41:15;;;;;;;1.20;1.20;;;15.40;99.90;;;;;;4996702;28;20252;-65
2023/08/02 04:43:42;;;;;;;1.90;1.70;;;15.40;99.90;;;;;;5000091;28;20714;-67
2023/08/02 04:46:09;;;;;;;2.40;1.80;;;15.40;99.90;;;;;;4995074;28;20549;-67
2023/08/02 04:48:37;;;;;;;1.63;1.53;;;15.40;99.90;;;;;;5004181;28;20260;-65
2023/08/02 04:51:07;;;;;;;1.90;1.80;;;15.40;99.90;;;;;;5002030;28;20248;-68
2023/08/02 04:53:34;;;;;;;1.87;1.70;;;15.40;99.90;;;;;;4988298;28;20209;-65
2023/08/02 04:56:01;;;;;;;1.90;1.80;;;15.40;99.90;;;;;;5003380;28;20875;-66
2023/08/02 04:58:28;;;;;;;1.97;1.87;;;15.40;99.90;;;;;;5001484;28;20204;-65
2023/08/02 05:00:54;;;;;;;2.67;2.50;;;15.40;99.90;;;;;;4994391;28;20660;-68
2023/08/02 05:03:22;;;;;;;2.87;2.60;;;15.40;99.90;;;;;;5001204;28;20209;-67
2023/08/02 05:05:51;;;;;;;3.03;2.70;;;15.40;99.90;;;;;;5000666;28;20587;-67
2023/08/02 05:08:18;;;;;;;2.73;2.47;;;15.40;99.90;;;;;;4992230;28;20193;-64
2023/08/02 05:10:45;;;;;;;3.17;2.87;;;15.40;99.90;;;;;;4985277;28;20209;-66
2023/08/02 05:13:11;;;;;;;2.73;2.63;;;15.40;99.90;;;;;;5001464;28;20193;-65
2023/08/02 05:15:38;;;;;;;3.57;3.27;;;15.40;99.90;;;;;;5004754;28;20217;-66
2023/08/02 05:18:05;;;;;;;4.37;3.90;;;15.50;99.90;;;;;;5009103;28;20201;-65
2023/08/02 05:20:32;;;;;;;3.57;3.27;;;15.50;99.90;;;;;;5006420;28;20720;-67
2023/08/02 05:23:00;;;;;;;4.20;3.80;;;15.50;99.90;;;;;;4996072;28;20697;-68
2023/08/02 05:25:30;;;;;;;4.30;3.70;;;15.30;99.90;;;;;;4979770;28;21713;-68
2023/08/02 05:27:57;;;;;;;4.40;3.70;;;15.40;99.90;;;;;;5000019;28;20196;-67
2023/08/02 05:30:24;;;;;;;6.53;3.83;;;15.60;99.90;;;;;;5002358;28;20422;-68
2023/08/02 05:32:51;;;;;;;4.53;3.93;;;15.60;99.90;;;;;;5000621;28;20258;-65
2023/08/02 05:35:18;;;;;;;4.60;3.47;;;15.60;99.90;;;;;;4997721;28;20224;-67
2023/08/02 05:37:45;;;;;;;4.47;3.97;;;15.70;99.90;;;;;;5004921;28;20219;-68
2023/08/02 05:40:14;;;;;;;4.17;3.83;;;15.80;99.90;;;;;;4986308;28;20200;-66
2023/08/02 05:42:40;;;;;;;7.33;4.27;;;15.70;99.90;;;;;;5000427;28;20216;-68
2023/08/02 05:45:09;;;;;;;7.23;4.07;;;15.60;99.90;;;;;;4990788;28;20752;-65
2023/08/02 05:47:36;;;;;;;4.63;4.00;;;15.60;99.90;;;;;;5003060;28;20192;-68
2023/08/02 05:50:04;;;;;;;6.27;3.87;;;15.70;99.90;;;;;;4982192;28;20255;-67
2023/08/02 05:52:30;;;;;;;3.60;3.30;;;15.80;99.90;;;;;;4985964;28;20207;-67
2023/08/02 05:54:57;;;;;;;3.73;3.40;;;15.80;99.90;;;;;;4990806;28;20282;-67
2023/08/02 05:57:26;;;;;;;4.97;3.80;;;16.00;99.90;;;;;;4979223;28;20913;-67
2023/08/02 05:59:52;;;;;;;5.30;3.63;;;16.00;99.90;;;;;;4986011;28;22754;-67
2023/08/02 06:02:19;;;;;;;8.77;3.50;;;16.10;99.90;;;;;;4994098;28;20213;-68
2023/08/02 06:04:46;;;;;;;6.03;3.40;;;16.00;99.90;;;;;;4998701;28;20216;-67
2023/08/02 06:07:13;;;;;;;4.53;3.40;;;16.10;99.90;;;;;;5004532;28;20756;-65
2023/08/02 06:09:40;;;;;;;5.53;3.50;;;16.00;99.90;;;;;;4986553;28;20213;-65
2023/08/02 06:12:08;;;;;;;4.50;3.90;;;16.20;99.90;;;;;;4988184;28;20223;-67
2023/08/02 06:14:36;;;;;;;3.97;3.57;;;16.10;99.90;;;;;;4997603;28;20217;-65
2023/08/02 06:17:03;;;;;;;3.93;3.60;;;16.20;99.90;;;;;;4994713;28;20213;-67
2023/08/02 06:19:30;;;;;;;3.47;3.17;;;16.20;99.90;;;;;;4997106;28;20201;-64
2023/08/02 06:21:57;;;;;;;5.03;4.33;;;16.10;99.90;;;;;;4989350;28;20223;-66
2023/08/02 06:24:24;;;;;;;6.50;3.87;;;16.30;99.90;;;;;;4999910;28;20335;-64
2023/08/02 06:26:51;;;;;;;5.60;3.43;;;16.20;99.90;;;;;;4979278;28;21386;-67
2023/08/02 06:29:18;;;;;;;2.90;2.70;;;16.30;99.90;;;;;;5005050;28;20612;-67
2023/08/02 06:31:46;;;;;;;4.77;4.07;;;16.30;99.90;;;;;;4991616;28;20536;-66
2023/08/02 06:34:13;;;;;;;5.83;3.43;;;16.40;99.90;;;;;;4999638;28;20279;-68
2023/08/02 06:36:40;;;;;;;3.93;3.60;;;16.30;99.90;;;;;;4992500;28;20216;-65
2023/08/02 06:39:07;;;;;;;7.50;3.60;;;16.30;99.90;;;;;;4992891;28;20501;-67
2023/08/02 06:41:34;;;;;;;5.37;3.50;;;16.40;99.90;;;;;;4994457;28;20200;-66
2023/08/02 06:44:00;;;;;;;6.07;4.50;;;16.50;99.90;;;;;;4971577;28;20221;-65
2023/08/02 06:46:29;;;;;;;5.47;3.70;;;16.60;99.90;;;;;;4978307;28;20677;-67
2023/08/02 06:48:57;;;;;;;8.07;4.10;;;16.50;99.90;;;;;;5000438;28;20204;-65
2023/08/02 06:51:24;;;;;;;4.77;4.20;;;16.50;99.90;;;;;;4998219;28;20193;-67
2023/08/02 06:53:51;;;;;;;4.33;3.83;;;16.60;99.90;;;;;;5002313;28;20271;-65
2023/08/02 06:56:18;;;;;;;4.23;3.83;;;16.70;99.90;;;;;;4989965;28;20267;-65
2023/08/02 06:58:45;;;;;;;5.43;4.20;;;16.70;99.90;;;;;;4986229;28;20213;-65
2023/08/02 07:01:14;;;;;;;7.90;5.47;;;16.70;99.90;;;;;;4994685;28;20197;-66
2023/08/02 07:03:40;;;;;;;4.47;4.03;;;16.80;99.90;;;;;;5004850;28;20270;-66
2023/08/02 07:06:13;;;;;;;7.40;4.63;;;16.70;99.90;;;;;;4998908;28;20931;-66
2023/08/02 07:08:41;;;;;;;5.70;4.93;;;16.70;99.90;;;;;;4996314;28;20281;-67
2023/08/02 07:11:08;;;;;;;10.63;5.07;;;16.80;99.90;;;;;;4997815;28;20274;-67
2023/08/02 07:13:37;;;;;;;8.30;5.57;;;17.00;99.90;;;;;;4979006;28;20204;-66
2023/08/02 07:16:04;;;;;;;7.53;6.13;;;17.00;99.90;;;;;;5001507;28;20263;-66
2023/08/02 07:18:32;;;;;;;6.67;6.00;;;17.10;99.90;;;;;;5004071;28;20591;-66
2023/08/02 07:21:04;;;;;;;6.83;6.13;;;17.30;99.90;;;;;;4992447;28;20193;-64
2023/08/02 07:23:32;;;;;;;6.03;5.43;;;17.30;99.90;;;;;;4993385;28;20669;-66
2023/08/02 07:25:59;;;;;;;6.13;5.60;;;17.30;99.90;;;;;;4986887;28;20249;-66
2023/08/02 07:28:26;;;;;;;5.77;5.13;;;17.40;99.90;;;;;;4972253;28;20213;-66
2023/08/02 07:30:53;;;;;;;10.20;5.80;;;17.50;99.90;;;;;;5001409;28;20850;-66
2023/08/02 07:33:20;;;;;;;5.20;4.87;;;17.30;99.90;;;;;;4999819;28;20204;-66
2023/08/02 07:35:47;;;;;;;5.60;4.60;;;17.60;99.90;;;;;;4993706;28;20216;-65
2023/08/02 07:38:14;;;;;;;5.67;5.10;;;17.60;99.90;;;;;;4999972;28;20579;-66
2023/08/02 07:40:43;;;;;;;5.90;4.83;;;17.70;99.90;;;;;;4990300;28;20629;-64
2023/08/02 07:43:10;;;;;;;4.87;4.47;;;17.70;99.90;;;;;;4993770;28;20213;-66
2023/08/02 07:45:36;;;;;;;4.23;3.83;;;17.80;99.90;;;;;;4972570;28;20220;-65
2023/08/02 07:48:03;;;;;;;4.80;4.30;;;17.80;99.90;;;;;;4987970;28;20285;-66
2023/08/02 07:50:30;;;;;;;6.43;3.63;;;17.80;99.90;;;;;;4991109;28;20208;-64
2023/08/02 07:52:57;;;;;;;4.03;3.60;;;17.80;99.90;;;;;;4991874;28;20236;-66
2023/08/02 07:55:24;;;;;;;4.47;4.00;;;17.90;99.90;;;;;;4998325;28;20263;-65
2023/08/02 07:57:52;;;;;;;9.83;3.80;;;18.00;99.90;;;;;;4992917;28;20243;-66
2023/08/02 08:00:19;;;;;;;4.03;3.27;;;17.80;99.90;;;;;;4984205;28;20219;-67
2023/08/02 08:02:46;;;;;;;5.93;3.80;;;17.90;99.90;;;;;;4985108;28;20227;-66
2023/08/02 08:05:13;;;;;;;7.30;3.80;;;17.70;99.90;;;;;;4994415;28;20558;-65
2023/08/02 08:07:40;;;;;;;6.13;3.67;;;17.80;99.90;;;;;;4993075;28;20201;-65
2023/08/02 08:10:07;;;;;;;3.73;3.43;;;17.70;99.90;;;;;;4994334;28;20200;-66
2023/08/02 08:12:34;;;;;;;6.90;4.27;;;17.70;99.90;;;;;;4995499;28;20573;-65
2023/08/02 08:15:02;;;;;;;5.97;3.90;;;17.80;99.90;;;;;;5008300;28;20206;-66
2023/08/02 08:17:29;;;;;;;6.27;4.10;;;18.00;99.90;;;;;;4991104;28;20211;-64
2023/08/02 08:19:56;;;;;;;6.50;3.67;;;17.80;99.90;;;;;;4994584;28;20758;-65
2023/08/02 08:22:28;;;;;;;6.07;4.10;;;18.00;99.90;;;;;;5001310;28;20275;-64
2023/08/02 08:24:55;;;;;;;8.20;4.23;;;17.90;99.90;;;;;;4999945;28;20319;-67
2023/08/02 08:27:22;;;;;;;5.50;4.57;;;18.00;99.90;;;;;;4983392;28;20685;-65
2023/08/02 08:29:48;;;;;;;7.40;4.60;;;18.20;99.90;;;;;;5005212;28;20263;-66
2023/08/02 08:32:17;;;;;;;6.00;3.77;;;18.20;99.90;;;;;;4983955;28;20208;-65
2023/08/02 08:34:44;;;;;;;7.27;3.10;;;18.30;99.90;;;;;;4997399;28;20289;-66
2023/08/02 08:37:11;;;;;;;4.40;3.47;;;18.20;99.90;;;;;;4997699;28;20735;-66
2023/08/02 08:39:38;;;;;;;8.00;4.10;;;18.30;99.90;;;;;;5005456;28;20661;-65
2023/08/02 08:42:07;;;;;;;7.90;3.67;;;18.20;99.90;;;;;;5008324;28;20196;-66
2023/08/02 08:44:36;;;;;;;6.30;3.23;;;18.50;99.90;;;;;;4992367;28;20302;-65
2023/08/02 08:47:05;;;;;;;4.33;2.87;;;18.60;99.90;;;;;;4988826;28;20213;-67
2023/08/02 08:49:33;;;;;;;8.33;2.97;;;18.60;99.90;;;;;;5003924;28;20204;-65
2023/08/02 08:52:04;;;;;;;10.60;3.30;;;18.60;99.90;;;;;;5000829;28;20806;-66
2023/08/02 08:54:33;;;;;;;11.10;3.40;;;18.80;99.90;;;;;;4995308;28;20305;-65
2023/08/02 08:57:01;;;;;;;4.60;3.03;;;18.90;99.90;;;;;;5000532;28;20201;-66
2023/08/02 08:59:27;;;;;;;5.80;3.07;;;18.90;99.90;;;;;;5001072;28;20201;-65
2023/08/02 09:01:58;;;;;;;5.93;3.43;;;18.90;99.90;;;;;;4984341;28;20212;-66
2023/08/02 09:04:26;;;;;;;5.27;2.97;;;19.00;99.90;;;;;;4997695;28;20224;-65
2023/08/02 09:06:54;;;;;;;5.07;2.60;;;19.00;99.90;;;;;;4996101;28;20201;-66
2023/08/02 09:09:21;;;;;;;8.47;3.10;;;19.00;99.90;;;;;;4993721;28;20208;-66
2023/08/02 09:11:48;;;;;;;6.43;2.93;;;19.10;99.90;;;;;;4997516;28;20775;-67
2023/08/02 09:14:16;;;;;;;6.03;2.70;;;19.20;99.90;;;;;;4997109;28;20224;-66
2023/08/02 09:17:02;;;;;;;4.70;2.40;;;19.30;99.90;;;;;;4998797;28;20717;-66
2023/08/02 09:19:31;;;;;;;7.67;2.50;;;19.50;99.90;;;;;;4982239;28;20272;-66
2023/08/02 09:22:10;;;;;;;3.53;2.53;;;19.60;99.90;;;;;;4989647;28;20496;-67
2023/08/02 09:24:38;;;;;;;4.23;2.43;;;19.70;99.90;;;;;;4993886;28;20233;-66
2023/08/02 09:27:06;;;;;;;6.87;2.20;;;19.80;99.90;;;;;;4995714;28;20212;-67
2023/08/02 09:29:46;;;;;;;6.50;2.50;;;19.90;99.90;;;;;;4999313;28;20303;-65
2023/08/02 09:32:13;;;;;;;3.30;2.10;;;19.90;99.90;;;;;;4998099;28;20696;-66
2023/08/02 09:34:45;;;;;;;6.07;2.07;;;19.80;99.90;;;;;;4984359;28;20278;-68
2023/08/02 09:37:14;;;;;;;5.20;2.43;;;19.80;99.90;;;;;;5007088;28;20267;-68
2023/08/02 09:39:49;;;;;;;4.80;2.20;;;19.80;99.90;;;;;;4991345;28;20255;-66
2023/08/02 09:42:17;;;;;;;4.00;2.50;;;19.90;99.90;;;;;;4992986;28;20207;-66
2023/08/02 09:44:53;;;;;;;5.97;2.47;;;19.90;99.90;;;;;;5001851;28;20235;-66
2023/08/02 09:47:20;;;;;;;4.10;2.10;;;19.90;99.90;;;;;;4996693;28;20256;-66
2023/08/02 09:50:03;;;;;;;6.78;2.70;;;19.90;99.90;;;;;;4988104;28;20208;-66
2023/08/02 09:52:32;;;;;;;4.00;2.30;;;19.80;99.90;;;;;;5007670;28;20207;-67
2023/08/02 09:54:59;;;;;;;3.67;2.17;;;19.70;99.90;;;;;;4985292;28;20276;-66
2023/08/02 09:57:27;;;;;;;6.53;2.50;;;19.60;99.90;;;;;;4992908;28;20624;-67
2023/08/02 09:59:54;;;;;;;3.03;2.30;;;19.70;99.90;;;;;;4996464;28;20201;-66
2023/08/02 10:02:24;;;;;;;5.35;2.30;;;19.80;99.90;;;;;;4999825;28;20204;-67
2023/08/02 10:04:56;;;;;;;5.93;2.80;;;19.90;99.90;;;;;;4983297;28;20241;-66
2023/08/02 10:07:28;;;;;;;5.72;2.70;;;19.90;99.90;;;;;;4983680;28;20251;-67
2023/08/02 10:10:05;;;;;;;5.38;2.60;;;19.80;99.90;;;;;;4983488;28;20209;-66
2023/08/02 10:12:34;;;;;;;4.80;2.40;;;19.90;99.90;;;;;;5000399;28;20212;-66
2023/08/02 10:15:02;;;;;;;7.22;2.65;;;19.90;99.90;;;;;;4986115;28;20217;-66
2023/08/02 10:17:30;;;;;;;4.60;2.38;;;19.90;99.90;;;;;;5002786;28;20201;-67
2023/08/02 10:19:58;;;;;;;8.10;2.60;;;20.00;99.90;;;;;;4978690;28;20200;-66
2023/08/02 10:22:26;;;;;;;5.95;2.53;;;20.10;99.90;;;;;;5001850;28;20229;-67
2023/08/02 10:24:53;;;;;;;8.27;2.60;;;19.90;99.90;;;;;;4992937;28;20228;-66
2023/08/02 10:27:22;;;;;;;4.80;2.50;;;19.90;99.90;;;;;;4997838;28;20766;-67
2023/08/02 10:29:50;;;;;;;4.38;2.70;;;20.00;99.90;;;;;;4994736;28;20205;-65
2023/08/02 10:32:19;;;;;;;4.53;2.25;;;20.00;99.90;;;;;;4986792;28;20208;-67
2023/08/02 10:34:50;;;;;;;3.90;2.40;;;20.00;99.90;;;;;;5000079;28;20220;-66
2023/08/02 10:37:19;;;;;;;8.40;2.85;;;19.80;99.90;;;;;;4977751;28;20205;-66
2023/08/02 10:39:56;;;;;;;4.93;2.30;;;19.80;99.90;;;;;;4983123;28;20197;-66
2023/08/02 10:42:29;;;;;;;4.18;2.60;;;19.80;99.90;;;;;;4996267;28;21006;-66
2023/08/02 10:45:15;;;;;;;4.88;2.15;;;19.80;99.90;;;;;;4998301;28;20225;-65
2023/08/02 10:47:43;;;;;;;4.85;2.45;;;19.80;99.90;;;;;;4983232;28;20319;-65
2023/08/02 10:50:49;;;;;;;7.22;2.10;;;19.80;99.90;;;;;;4985961;28;20201;-67
2023/08/02 10:53:16;;;;;;;4.22;2.22;;;19.80;99.90;;;;;;4973573;28;20197;-67
2023/08/02 10:56:16;;;;;;;3.90;1.95;;;19.60;99.90;;;;;;4982559;28;20223;-66
2023/08/02 10:58:52;;;;;;;5.82;2.60;;;19.50;99.90;;;;;;4916199;29;20354;-66
2023/08/02 11:01:19;;;;;;;3.75;2.45;;;19.50;99.90;;;;;;4982041;28;20279;-67
2023/08/02 11:03:46;;;;;;;2.85;2.20;;;19.40;99.90;;;;;;4990724;28;20582;-66
2023/08/02 11:06:32;;;;;;;5.25;2.80;;;19.40;99.90;;;;;;4991054;28;20239;-66
2023/08/02 11:08:59;;;;;;;3.10;2.47;;;19.50;99.90;;;;;;4977154;28;20205;-66
2023/08/02 11:11:30;;;;;;;4.30;2.25;;;19.40;99.90;;;;;;4987950;28;20251;-67
2023/08/02 11:13:58;;;;;;;5.18;2.70;;;19.50;99.90;;;;;;4996918;28;20224;-65
2023/08/02 11:16:25;;;;;;;7.90;3.08;;;19.50;99.90;;;;;;5002916;28;20709;-65
2023/08/02 11:18:53;;;;;;;4.90;2.40;;;19.50;99.90;;;;;;4992493;28;21097;-66
2023/08/02 11:21:20;;;;;;;4.90;2.40;;;19.40;99.90;;;;;;4995980;28;20563;-67
2023/08/02 11:23:49;;;;;;;5.00;2.50;;;19.40;99.90;;;;;;4981101;28;20685;-66
2023/08/02 11:26:18;;;;;;;9.88;3.13;;;19.40;99.90;;;;;;4996587;28;20205;-67
2023/08/02 11:28:48;;;;;;;2.95;2.38;;;19.50;99.90;;;;;;4989153;28;20279;-66
2023/08/02 11:31:17;;;;;;;5.38;2.70;;;19.40;99.90;;;;;;4986540;28;20308;-67
2023/08/02 11:33:44;;;;;;;10.05;2.63;;;19.40;99.90;;;;;;5005260;28;20545;-66
2023/08/02 11:36:12;;;;;;;2.35;2.15;;;19.40;99.90;;;;;;4993602;28;20924;-67
2023/08/02 11:38:39;;;;;;;3.90;2.97;;;19.40;99.90;;;;;;4976507;28;20219;-67
2023/08/02 11:41:17;;;;;;;4.45;2.55;;;19.40;99.90;;;;;;5001974;28;20189;-66
2023/08/02 11:43:45;;;;;;;3.80;2.10;;;19.30;99.90;;;;;;4995830;28;20223;-66
2023/08/02 11:46:21;;;;;;;5.13;2.58;;;19.30;99.90;;;;;;4996291;28;20262;-66
2023/08/02 11:48:48;;;;;;;2.40;2.20;;;19.30;99.90;;;;;;5005311;28;20206;-67
2023/08/02 11:51:16;;;;;;;4.95;2.40;;;19.30;99.90;;;;;;4991753;28;20220;-66
2023/08/02 11:53:55;;;;;;;6.07;2.40;;;19.20;99.90;;;;;;4976636;28;21534;-67
2023/08/02 11:56:22;;;;;;;4.50;2.95;;;19.20;99.90;;;;;;4991699;28;20219;-67
2023/08/02 11:58:50;;;;;;;5.78;2.40;;;19.20;99.90;;;;;;4993124;28;20201;-67
2023/08/02 12:01:18;;;;;;;5.18;2.60;;;19.20;99.90;;;;;;4990474;28;20205;-67
2023/08/02 12:04:00;;;;;;;2.63;2.15;;;19.20;99.90;;;;;;5000647;28;20202;-68
2023/08/02 12:06:28;;;;;;;5.68;2.85;;;19.10;99.90;;;;;;4989881;28;20282;-67
2023/08/02 12:08:56;;;;;;;4.30;2.30;;;19.00;99.90;;;;;;4983717;28;20259;-66
2023/08/02 12:11:23;;;;;;;3.75;2.40;;;19.00;99.90;;;;;;5000256;28;20271;-66
2023/08/02 12:13:51;;;;;;;4.47;2.60;;;18.90;99.90;;;;;;5000301;28;20668;-68
2023/08/02 12:16:20;;;;;;;3.47;2.17;;;19.00;99.90;;;;;;4990737;28;20204;-67
2023/08/02 12:18:54;;;;;;;6.07;2.20;;;18.90;99.90;;;;;;4992637;28;20658;-67
2023/08/02 12:21:21;;;;;;;2.40;2.10;;;18.90;99.90;;;;;;4991188;28;20329;-66
2023/08/02 12:23:48;;;;;;;3.10;1.80;;;19.00;99.90;;;;;;5001605;28;20201;-68
2023/08/02 12:26:32;;;;;;;4.97;2.10;;;19.00;99.90;;;;;;4980442;28;20461;-68
2023/08/02 12:28:59;;;;;;;4.05;2.10;;;18.90;99.90;;;;;;4997849;28;20255;-66
2023/08/02 12:31:28;;;;;;;3.53;1.90;;;18.80;99.90;;;;;;4973270;28;20284;-67
2023/08/02 12:33:55;;;;;;;3.13;2.00;;;18.70;99.90;;;;;;4996919;28;20565;-66
2023/08/02 12:36:26;;;;;;;2.80;1.93;;;18.60;99.90;;;;;;4990284;28;20215;-66
2023/08/02 12:38:53;;;;;;;2.70;2.00;;;18.60;99.90;;;;;;4995510;28;20207;-66
2023/08/02 12:41:20;;;;;;;2.60;2.15;;;18.80;99.90;;;;;;4974976;28;20235;-66
2023/08/02 12:43:50;;;;;;;5.03;1.65;;;19.10;99.90;;;;;;4992739;28;20673;-67
2023/08/02 12:46:17;;;;;;;2.40;1.90;;;19.20;99.90;;;;;;4982699;28;20484;-67
2023/08/02 12:48:46;;;;;;;4.65;1.90;;;19.40;99.90;;;;;;4996884;28;20239;-67
2023/08/02 12:51:13;;;;;;;3.38;1.92;;;19.40;99.90;;;;;;4988169;28;20216;-67